EDFM METAR and TAF | Updated Today

EDFM METAR

Mannheim-City Airport

Observation time: 20 min. ago

EDFM 061920Z 04006KT 9999 FEW046 02/M03 Q1037

Need help? Read our tutorial on how to read METARs or read the parsed version below.

Mannheim-City Airport (EDFM) METAR

  • Weather conditions on Mon, 06 Feb 2023 19:20:00 +0000 (20 min. ago):
  • Present conditions: Dry
  • Clouds: A few at 1402 meters
  • Visibility: Greater than 10 km
  • Wind: 40 degrees at 6 knots
  • Temperature: 2 celsius
  • Dew point: -3 celsius
  • Pressure: 1037 millibars
  • Remarks: None


Useful to know...

EDFM TAF

Mannheim-City Airport

TAF EDFM 061700Z 0618/0621 01004KT 9999 SCT035
Observation time: 2:40 hr. ago
Need help? Read our tutorial on how to read TAFs or read the parsed version below.

Parsed version of TAF for Mannheim-City Airport (EDFM)

  • From 06 February at 18:00 UTC, to day 06 of the month at 21:00 UTC
  • Clouds: Scattered at 1067 meters
  • Visibility: Greater than 10 km
  • Wind: 10 degrees at 4